sensor_id;sensor_type;location;lat;lon;timestamp;P1;durP1;ratioP1;P2;durP2;ratioP2
55931;SDS011;41837;55.700;37.984;2023-04-24T00:01:02;57.53;;;19.67;;
55931;SDS011;41837;55.700;37.984;2023-04-24T00:03:28;49.30;;;19.05;;
55931;SDS011;41837;55.700;37.984;2023-04-24T00:05:55;52.53;;;18.70;;
55931;SDS011;41837;55.700;37.984;2023-04-24T00:08:21;46.40;;;18.90;;
55931;SDS011;41837;55.700;37.984;2023-04-24T00:10:48;60.90;;;20.70;;
55931;SDS011;41837;55.700;37.984;2023-04-24T00:13:14;53.65;;;20.67;;
55931;SDS011;41837;55.700;37.984;2023-04-24T00:15:40;47.53;;;19.60;;
55931;SDS011;41837;55.700;37.984;2023-04-24T00:18:07;53.53;;;19.67;;
55931;SDS011;41837;55.700;37.984;2023-04-24T00:20:33;44.22;;;19.55;;
55931;SDS011;41837;55.700;37.984;2023-04-24T00:23:01;41.75;;;19.13;;
55931;SDS011;41837;55.700;37.984;2023-04-24T00:25:28;62.03;;;20.45;;
55931;SDS011;41837;55.700;37.984;2023-04-24T00:27:55;63.72;;;21.83;;
55931;SDS011;41837;55.700;37.984;2023-04-24T00:30:21;47.67;;;19.42;;
55931;SDS011;41837;55.700;37.984;2023-04-24T00:32:47;55.75;;;20.52;;
55931;SDS011;41837;55.700;37.984;2023-04-24T00:35:13;53.97;;;20.85;;
55931;SDS011;41837;55.700;37.984;2023-04-24T00:37:42;56.63;;;20.88;;
55931;SDS011;41837;55.700;37.984;2023-04-24T00:40:08;63.33;;;21.17;;
55931;SDS011;41837;55.700;37.984;2023-04-24T00:42:35;57.25;;;22.10;;
55931;SDS011;41837;55.700;37.984;2023-04-24T00:45:03;57.80;;;20.88;;
55931;SDS011;41837;55.700;37.984;2023-04-24T00:47:32;51.20;;;20.88;;
55931;SDS011;41837;55.700;37.984;2023-04-24T00:50:03;58.08;;;20.65;;
55931;SDS011;41837;55.700;37.984;2023-04-24T00:52:32;47.20;;;20.05;;
55931;SDS011;41837;55.700;37.984;2023-04-24T00:54:59;68.10;;;22.75;;
55931;SDS011;41837;55.700;37.984;2023-04-24T00:57:26;48.40;;;20.15;;
55931;SDS011;41837;55.700;37.984;2023-04-24T00:59:52;54.72;;;20.23;;
55931;SDS011;41837;55.700;37.984;2023-04-24T01:02:19;52.67;;;20.08;;
55931;SDS011;41837;55.700;37.984;2023-04-24T01:04:46;55.63;;;21.25;;
55931;SDS011;41837;55.700;37.984;2023-04-24T01:07:13;54.50;;;20.83;;
55931;SDS011;41837;55.700;37.984;2023-04-24T01:09:42;57.60;;;20.20;;
55931;SDS011;41837;55.700;37.984;2023-04-24T01:12:13;56.58;;;20.42;;
55931;SDS011;41837;55.700;37.984;2023-04-24T01:14:39;54.33;;;20.63;;
55931;SDS011;41837;55.700;37.984;2023-04-24T01:17:07;56.28;;;21.63;;
55931;SDS011;41837;55.700;37.984;2023-04-24T01:19:34;54.10;;;21.52;;
55931;SDS011;41837;55.700;37.984;2023-04-24T01:22:08;57.40;;;21.13;;
55931;SDS011;41837;55.700;37.984;2023-04-24T01:24:44;58.33;;;22.77;;
55931;SDS011;41837;55.700;37.984;2023-04-24T01:27:11;52.22;;;20.75;;
55931;SDS011;41837;55.700;37.984;2023-04-24T01:29:38;51.80;;;20.63;;
55931;SDS011;41837;55.700;37.984;2023-04-24T01:32:05;57.70;;;21.30;;
55931;SDS011;41837;55.700;37.984;2023-04-24T01:34:32;56.75;;;21.60;;
55931;SDS011;41837;55.700;37.984;2023-04-24T01:36:59;60.35;;;19.75;;
55931;SDS011;41837;55.700;37.984;2023-04-24T01:39:26;58.50;;;21.13;;
55931;SDS011;41837;55.700;37.984;2023-04-24T01:41:54;55.47;;;21.35;;
55931;SDS011;41837;55.700;37.984;2023-04-24T01:44:21;54.40;;;21.75;;
55931;SDS011;41837;55.700;37.984;2023-04-24T01:46:48;57.08;;;22.13;;
55931;SDS011;41837;55.700;37.984;2023-04-24T01:49:15;58.30;;;21.75;;
55931;SDS011;41837;55.700;37.984;2023-04-24T01:51:41;55.05;;;21.00;;
55931;SDS011;41837;55.700;37.984;2023-04-24T01:54:08;55.35;;;21.10;;
55931;SDS011;41837;55.700;37.984;2023-04-24T01:56:35;59.55;;;20.98;;
55931;SDS011;41837;55.700;37.984;2023-04-24T01:59:06;55.65;;;20.88;;
55931;SDS011;41837;55.700;37.984;2023-04-24T02:01:34;50.22;;;20.00;;
55931;SDS011;41837;55.700;37.984;2023-04-24T02:04:02;61.20;;;20.42;;
55931;SDS011;41837;55.700;37.984;2023-04-24T02:06:29;56.08;;;20.67;;
55931;SDS011;41837;55.700;37.984;2023-04-24T02:09:00;60.45;;;20.85;;
55931;SDS011;41837;55.700;37.984;2023-04-24T02:11:28;53.65;;;19.75;;
55931;SDS011;41837;55.700;37.984;2023-04-24T02:13:54;49.22;;;20.52;;
55931;SDS011;41837;55.700;37.984;2023-04-24T02:16:21;52.97;;;21.08;;
55931;SDS011;41837;55.700;37.984;2023-04-24T02:19:07;50.83;;;20.20;;
55931;SDS011;41837;55.700;37.984;2023-04-24T02:21:33;57.40;;;20.15;;
55931;SDS011;41837;55.700;37.984;2023-04-24T02:24:00;57.58;;;20.02;;
55931;SDS011;41837;55.700;37.984;2023-04-24T02:26:27;51.40;;;19.65;;
55931;SDS011;41837;55.700;37.984;2023-04-24T02:28:54;51.35;;;19.42;;
55931;SDS011;41837;55.700;37.984;2023-04-24T02:31:20;52.53;;;21.52;;
55931;SDS011;41837;55.700;37.984;2023-04-24T02:33:47;48.92;;;20.63;;
55931;SDS011;41837;55.700;37.984;2023-04-24T02:36:14;56.55;;;20.08;;
55931;SDS011;41837;55.700;37.984;2023-04-24T02:38:41;49.45;;;21.13;;
55931;SDS011;41837;55.700;37.984;2023-04-24T02:41:07;57.15;;;22.52;;
55931;SDS011;41837;55.700;37.984;2023-04-24T02:43:33;65.20;;;20.95;;
55931;SDS011;41837;55.700;37.984;2023-04-24T02:45:59;46.80;;;20.00;;
55931;SDS011;41837;55.700;37.984;2023-04-24T02:48:26;61.05;;;19.73;;
55931;SDS011;41837;55.700;37.984;2023-04-24T02:50:52;69.13;;;22.38;;
55931;SDS011;41837;55.700;37.984;2023-04-24T02:53:19;64.07;;;22.25;;
55931;SDS011;41837;55.700;37.984;2023-04-24T02:55:45;66.20;;;21.45;;
55931;SDS011;41837;55.700;37.984;2023-04-24T02:58:12;77.68;;;20.77;;
55931;SDS011;41837;55.700;37.984;2023-04-24T03:00:39;63.15;;;20.52;;
55931;SDS011;41837;55.700;37.984;2023-04-24T03:03:05;64.03;;;24.25;;
55931;SDS011;41837;55.700;37.984;2023-04-24T03:05:33;66.90;;;21.77;;
55931;SDS011;41837;55.700;37.984;2023-04-24T03:07:59;58.33;;;21.08;;
55931;SDS011;41837;55.700;37.984;2023-04-24T03:10:26;61.15;;;22.98;;
55931;SDS011;41837;55.700;37.984;2023-04-24T03:12:52;62.42;;;21.90;;
55931;SDS011;41837;55.700;37.984;2023-04-24T03:15:18;63.03;;;23.35;;
55931;SDS011;41837;55.700;37.984;2023-04-24T03:17:45;72.22;;;23.85;;
55931;SDS011;41837;55.700;37.984;2023-04-24T03:20:11;88.72;;;23.60;;
55931;SDS011;41837;55.700;37.984;2023-04-24T03:22:38;99.32;;;24.45;;
55931;SDS011;41837;55.700;37.984;2023-04-24T03:25:06;121.20;;;27.08;;
55931;SDS011;41837;55.700;37.984;2023-04-24T03:27:35;106.88;;;26.00;;
55931;SDS011;41837;55.700;37.984;2023-04-24T03:30:06;105.28;;;26.00;;
55931;SDS011;41837;55.700;37.984;2023-04-24T03:32:42;103.40;;;24.63;;
55931;SDS011;41837;55.700;37.984;2023-04-24T03:35:12;91.28;;;23.98;;
55931;SDS011;41837;55.700;37.984;2023-04-24T03:37:38;86.82;;;23.02;;
55931;SDS011;41837;55.700;37.984;2023-04-24T03:40:27;76.75;;;21.52;;
55931;SDS011;41837;55.700;37.984;2023-04-24T03:42:57;81.88;;;23.77;;
55931;SDS011;41837;55.700;37.984;2023-04-24T03:45:23;74.18;;;20.73;;
55931;SDS011;41837;55.700;37.984;2023-04-24T03:47:50;63.95;;;21.90;;
55931;SDS011;41837;55.700;37.984;2023-04-24T03:50:17;63.42;;;20.48;;
55931;SDS011;41837;55.700;37.984;2023-04-24T03:52:55;73.60;;;21.13;;
55931;SDS011;41837;55.700;37.984;2023-04-24T03:55:33;57.30;;;18.42;;
55931;SDS011;41837;55.700;37.984;2023-04-24T03:57:59;63.90;;;19.77;;
55931;SDS011;41837;55.700;37.984;2023-04-24T04:00:26;53.60;;;19.25;;
55931;SDS011;41837;55.700;37.984;2023-04-24T04:03:09;48.45;;;19.38;;
55931;SDS011;41837;55.700;37.984;2023-04-24T04:05:36;56.00;;;18.65;;
55931;SDS011;41837;55.700;37.984;2023-04-24T04:08:02;49.85;;;18.88;;
55931;SDS011;41837;55.700;37.984;2023-04-24T04:10:29;44.63;;;17.75;;
55931;SDS011;41837;55.700;37.984;2023-04-24T04:12:56;43.47;;;17.92;;
55931;SDS011;41837;55.700;37.984;2023-04-24T04:15:22;44.85;;;17.88;;
55931;SDS011;41837;55.700;37.984;2023-04-24T04:17:49;46.03;;;17.83;;
55931;SDS011;41837;55.700;37.984;2023-04-24T04:20:16;41.47;;;17.48;;
55931;SDS011;41837;55.700;37.984;2023-04-24T04:22:42;43.38;;;18.58;;
55931;SDS011;41837;55.700;37.984;2023-04-24T04:25:11;41.80;;;18.20;;
55931;SDS011;41837;55.700;37.984;2023-04-24T04:27:39;44.03;;;17.77;;
55931;SDS011;41837;55.700;37.984;2023-04-24T04:30:09;42.25;;;18.70;;
55931;SDS011;41837;55.700;37.984;2023-04-24T04:32:45;34.70;;;16.33;;
55931;SDS011;41837;55.700;37.984;2023-04-24T04:35:13;32.92;;;16.73;;
55931;SDS011;41837;55.700;37.984;2023-04-24T04:37:41;37.85;;;16.70;;
55931;SDS011;41837;55.700;37.984;2023-04-24T04:40:14;35.35;;;16.30;;
55931;SDS011;41837;55.700;37.984;2023-04-24T04:42:50;36.90;;;16.30;;
55931;SDS011;41837;55.700;37.984;2023-04-24T04:45:19;33.28;;;16.65;;
55931;SDS011;41837;55.700;37.984;2023-04-24T04:48:06;34.90;;;16.70;;
55931;SDS011;41837;55.700;37.984;2023-04-24T04:50:38;37.70;;;16.45;;
55931;SDS011;41837;55.700;37.984;2023-04-24T04:53:06;29.40;;;15.40;;
55931;SDS011;41837;55.700;37.984;2023-04-24T04:55:37;44.80;;;18.55;;
55931;SDS011;41837;55.700;37.984;2023-04-24T04:58:10;28.50;;;15.25;;
55931;SDS011;41837;55.700;37.984;2023-04-24T05:00:37;29.60;;;15.05;;
55931;SDS011;41837;55.700;37.984;2023-04-24T05:03:12;38.22;;;13.55;;
55931;SDS011;41837;55.700;37.984;2023-04-24T05:05:39;35.13;;;15.32;;
55931;SDS011;41837;55.700;37.984;2023-04-24T05:08:09;36.53;;;16.38;;
55931;SDS011;41837;55.700;37.984;2023-04-24T05:10:36;35.90;;;15.95;;
55931;SDS011;41837;55.700;37.984;2023-04-24T05:13:04;41.53;;;18.23;;
55931;SDS011;41837;55.700;37.984;2023-04-24T05:15:31;49.05;;;19.33;;
55931;SDS011;41837;55.700;37.984;2023-04-24T05:18:00;55.53;;;20.92;;
55931;SDS011;41837;55.700;37.984;2023-04-24T05:20:27;48.42;;;18.20;;
55931;SDS011;41837;55.700;37.984;2023-04-24T05:22:54;41.42;;;17.20;;
55931;SDS011;41837;55.700;37.984;2023-04-24T05:25:21;67.10;;;21.95;;
55931;SDS011;41837;55.700;37.984;2023-04-24T05:27:57;60.10;;;21.15;;
55931;SDS011;41837;55.700;37.984;2023-04-24T05:30:23;64.63;;;23.60;;
55931;SDS011;41837;55.700;37.984;2023-04-24T05:32:50;64.55;;;22.70;;
55931;SDS011;41837;55.700;37.984;2023-04-24T05:35:16;40.55;;;14.88;;
55931;SDS011;41837;55.700;37.984;2023-04-24T05:37:44;49.78;;;17.73;;
55931;SDS011;41837;55.700;37.984;2023-04-24T05:40:11;58.65;;;17.60;;
55931;SDS011;41837;55.700;37.984;2023-04-24T05:42:37;60.22;;;19.75;;
55931;SDS011;41837;55.700;37.984;2023-04-24T05:45:04;46.75;;;16.70;;
55931;SDS011;41837;55.700;37.984;2023-04-24T05:47:33;52.95;;;18.48;;
55931;SDS011;41837;55.700;37.984;2023-04-24T05:50:11;62.08;;;21.60;;
55931;SDS011;41837;55.700;37.984;2023-04-24T05:52:37;54.65;;;19.67;;
55931;SDS011;41837;55.700;37.984;2023-04-24T05:55:12;47.03;;;17.70;;
55931;SDS011;41837;55.700;37.984;2023-04-24T05:57:52;44.25;;;16.83;;
55931;SDS011;41837;55.700;37.984;2023-04-24T06:00:19;38.58;;;17.48;;
55931;SDS011;41837;55.700;37.984;2023-04-24T06:02:53;45.38;;;15.40;;
55931;SDS011;41837;55.700;37.984;2023-04-24T06:05:20;32.97;;;14.35;;
55931;SDS011;41837;55.700;37.984;2023-04-24T06:07:47;44.90;;;14.93;;
55931;SDS011;41837;55.700;37.984;2023-04-24T06:10:14;21.55;;;11.43;;
55931;SDS011;41837;55.700;37.984;2023-04-24T06:12:45;28.00;;;11.60;;
55931;SDS011;41837;55.700;37.984;2023-04-24T06:15:16;26.92;;;12.00;;
55931;SDS011;41837;55.700;37.984;2023-04-24T06:17:50;31.15;;;11.52;;
55931;SDS011;41837;55.700;37.984;2023-04-24T06:20:17;39.08;;;14.98;;
55931;SDS011;41837;55.700;37.984;2023-04-24T06:22:44;42.67;;;16.65;;
55931;SDS011;41837;55.700;37.984;2023-04-24T06:25:10;23.60;;;11.43;;
55931;SDS011;41837;55.700;37.984;2023-04-24T06:27:37;15.02;;;8.15;;
55931;SDS011;41837;55.700;37.984;2023-04-24T06:30:04;21.65;;;9.10;;
55931;SDS011;41837;55.700;37.984;2023-04-24T06:32:32;32.05;;;9.13;;
55931;SDS011;41837;55.700;37.984;2023-04-24T06:34:59;14.38;;;7.85;;
55931;SDS011;41837;55.700;37.984;2023-04-24T06:37:29;27.50;;;11.15;;
55931;SDS011;41837;55.700;37.984;2023-04-24T06:39:55;22.55;;;7.82;;
55931;SDS011;41837;55.700;37.984;2023-04-24T06:42:21;17.80;;;8.55;;
55931;SDS011;41837;55.700;37.984;2023-04-24T06:44:49;16.60;;;7.72;;
55931;SDS011;41837;55.700;37.984;2023-04-24T06:47:15;17.27;;;7.22;;
55931;SDS011;41837;55.700;37.984;2023-04-24T06:49:42;16.60;;;7.35;;
55931;SDS011;41837;55.700;37.984;2023-04-24T06:52:08;20.80;;;8.10;;
55931;SDS011;41837;55.700;37.984;2023-04-24T06:54:35;12.55;;;6.30;;
55931;SDS011;41837;55.700;37.984;2023-04-24T06:57:01;14.10;;;6.53;;
55931;SDS011;41837;55.700;37.984;2023-04-24T06:59:28;18.42;;;5.88;;
55931;SDS011;41837;55.700;37.984;2023-04-24T07:01:55;29.92;;;8.05;;
55931;SDS011;41837;55.700;37.984;2023-04-24T07:04:22;17.02;;;6.47;;
55931;SDS011;41837;55.700;37.984;2023-04-24T07:06:50;13.15;;;5.85;;
55931;SDS011;41837;55.700;37.984;2023-04-24T07:09:29;10.80;;;5.50;;
55931;SDS011;41837;55.700;37.984;2023-04-24T07:11:55;14.48;;;4.57;;
55931;SDS011;41837;55.700;37.984;2023-04-24T07:14:22;16.75;;;5.80;;
55931;SDS011;41837;55.700;37.984;2023-04-24T07:16:49;10.95;;;5.05;;
55931;SDS011;41837;55.700;37.984;2023-04-24T07:19:15;9.20;;;4.50;;
55931;SDS011;41837;55.700;37.984;2023-04-24T07:21:41;12.20;;;5.03;;
55931;SDS011;41837;55.700;37.984;2023-04-24T07:24:08;14.90;;;5.00;;
55931;SDS011;41837;55.700;37.984;2023-04-24T07:26:38;13.77;;;4.45;;
55931;SDS011;41837;55.700;37.984;2023-04-24T07:29:07;6.13;;;4.30;;
55931;SDS011;41837;55.700;37.984;2023-04-24T07:31:33;12.00;;;4.35;;
55931;SDS011;41837;55.700;37.984;2023-04-24T07:33:59;15.30;;;4.85;;
55931;SDS011;41837;55.700;37.984;2023-04-24T07:36:26;13.38;;;4.38;;
55931;SDS011;41837;55.700;37.984;2023-04-24T07:38:55;11.75;;;4.45;;
55931;SDS011;41837;55.700;37.984;2023-04-24T07:41:22;11.68;;;4.13;;
55931;SDS011;41837;55.700;37.984;2023-04-24T07:43:49;11.60;;;4.15;;
55931;SDS011;41837;55.700;37.984;2023-04-24T07:46:16;7.53;;;4.00;;
55931;SDS011;41837;55.700;37.984;2023-04-24T07:48:42;7.22;;;3.70;;
55931;SDS011;41837;55.700;37.984;2023-04-24T07:51:08;5.75;;;4.28;;
55931;SDS011;41837;55.700;37.984;2023-04-24T07:53:36;13.15;;;5.43;;
55931;SDS011;41837;55.700;37.984;2023-04-24T07:56:02;11.32;;;4.50;;
55931;SDS011;41837;55.700;37.984;2023-04-24T07:58:29;12.13;;;4.07;;
55931;SDS011;41837;55.700;37.984;2023-04-24T08:00:55;6.38;;;4.03;;
55931;SDS011;41837;55.700;37.984;2023-04-24T08:03:21;7.10;;;3.53;;
55931;SDS011;41837;55.700;37.984;2023-04-24T08:05:47;11.13;;;3.97;;
55931;SDS011;41837;55.700;37.984;2023-04-24T08:08:14;7.85;;;3.83;;
55931;SDS011;41837;55.700;37.984;2023-04-24T08:10:40;8.93;;;4.07;;
55931;SDS011;41837;55.700;37.984;2023-04-24T08:13:19;13.48;;;4.72;;
55931;SDS011;41837;55.700;37.984;2023-04-24T08:15:46;9.63;;;3.88;;
55931;SDS011;41837;55.700;37.984;2023-04-24T08:18:12;10.13;;;4.03;;
55931;SDS011;41837;55.700;37.984;2023-04-24T08:20:39;7.13;;;4.38;;
55931;SDS011;41837;55.700;37.984;2023-04-24T08:23:06;6.72;;;4.07;;
55931;SDS011;41837;55.700;37.984;2023-04-24T08:25:32;7.90;;;4.75;;
55931;SDS011;41837;55.700;37.984;2023-04-24T08:28:02;6.32;;;3.92;;
55931;SDS011;41837;55.700;37.984;2023-04-24T08:30:30;8.02;;;4.15;;
55931;SDS011;41837;55.700;37.984;2023-04-24T08:32:56;7.40;;;3.97;;
55931;SDS011;41837;55.700;37.984;2023-04-24T08:35:22;5.90;;;4.32;;
55931;SDS011;41837;55.700;37.984;2023-04-24T08:37:48;8.50;;;4.07;;
55931;SDS011;41837;55.700;37.984;2023-04-24T08:40:27;9.23;;;4.28;;
55931;SDS011;41837;55.700;37.984;2023-04-24T08:42:55;13.35;;;4.57;;
55931;SDS011;41837;55.700;37.984;2023-04-24T08:45:22;9.05;;;4.30;;
55931;SDS011;41837;55.700;37.984;2023-04-24T08:47:49;10.05;;;4.57;;
55931;SDS011;41837;55.700;37.984;2023-04-24T08:50:18;9.48;;;4.85;;
55931;SDS011;41837;55.700;37.984;2023-04-24T08:52:45;10.98;;;4.82;;
55931;SDS011;41837;55.700;37.984;2023-04-24T08:55:13;9.60;;;4.43;;
55931;SDS011;41837;55.700;37.984;2023-04-24T08:57:40;5.82;;;4.43;;
55931;SDS011;41837;55.700;37.984;2023-04-24T09:00:20;10.02;;;4.22;;
55931;SDS011;41837;55.700;37.984;2023-04-24T09:02:47;11.88;;;5.32;;
55931;SDS011;41837;55.700;37.984;2023-04-24T09:05:18;10.63;;;4.22;;
55931;SDS011;41837;55.700;37.984;2023-04-24T09:07:49;9.90;;;4.72;;
55931;SDS011;41837;55.700;37.984;2023-04-24T09:10:22;13.45;;;4.53;;
55931;SDS011;41837;55.700;37.984;2023-04-24T09:12:52;14.80;;;4.57;;
55931;SDS011;41837;55.700;37.984;2023-04-24T09:15:20;10.82;;;4.18;;
55931;SDS011;41837;55.700;37.984;2023-04-24T09:17:47;14.10;;;4.40;;
55931;SDS011;41837;55.700;37.984;2023-04-24T09:20:13;15.10;;;4.82;;
55931;SDS011;41837;55.700;37.984;2023-04-24T09:22:40;13.55;;;4.25;;
55931;SDS011;41837;55.700;37.984;2023-04-24T09:25:07;9.70;;;4.38;;
55931;SDS011;41837;55.700;37.984;2023-04-24T09:27:35;8.13;;;4.38;;
55931;SDS011;41837;55.700;37.984;2023-04-24T09:30:02;12.48;;;4.88;;
55931;SDS011;41837;55.700;37.984;2023-04-24T09:32:32;11.90;;;4.72;;
55931;SDS011;41837;55.700;37.984;2023-04-24T09:37:37;10.13;;;4.40;;
55931;SDS011;41837;55.700;37.984;2023-04-24T09:40:15;11.73;;;4.50;;
55931;SDS011;41837;55.700;37.984;2023-04-24T09:42:50;10.80;;;4.10;;
55931;SDS011;41837;55.700;37.984;2023-04-24T09:45:18;6.20;;;4.10;;
55931;SDS011;41837;55.700;37.984;2023-04-24T09:47:47;7.97;;;4.53;;
55931;SDS011;41837;55.700;37.984;2023-04-24T09:50:19;13.48;;;4.85;;
55931;SDS011;41837;55.700;37.984;2023-04-24T09:52:55;11.90;;;4.13;;
55931;SDS011;41837;55.700;37.984;2023-04-24T09:55:23;9.65;;;4.20;;
55931;SDS011;41837;55.700;37.984;2023-04-24T09:57:53;11.10;;;4.70;;
55931;SDS011;41837;55.700;37.984;2023-04-24T10:00:24;10.30;;;4.60;;
55931;SDS011;41837;55.700;37.984;2023-04-24T10:02:55;9.50;;;4.20;;
55931;SDS011;41837;55.700;37.984;2023-04-24T10:05:27;21.17;;;5.53;;
55931;SDS011;41837;55.700;37.984;2023-04-24T10:08:02;26.27;;;4.95;;
55931;SDS011;41837;55.700;37.984;2023-04-24T10:10:31;9.98;;;4.18;;
55931;SDS011;41837;55.700;37.984;2023-04-24T10:12:58;6.95;;;4.28;;
55931;SDS011;41837;55.700;37.984;2023-04-24T10:15:27;11.48;;;4.15;;
55931;SDS011;41837;55.700;37.984;2023-04-24T10:17:54;7.05;;;4.00;;
55931;SDS011;41837;55.700;37.984;2023-04-24T10:20:21;9.00;;;3.80;;
55931;SDS011;41837;55.700;37.984;2023-04-24T10:22:50;16.42;;;5.18;;
55931;SDS011;41837;55.700;37.984;2023-04-24T10:25:22;13.50;;;4.43;;
55931;SDS011;41837;55.700;37.984;2023-04-24T10:27:51;10.23;;;4.78;;
55931;SDS011;41837;55.700;37.984;2023-04-24T10:30:19;11.23;;;5.20;;
55931;SDS011;41837;55.700;37.984;2023-04-24T10:32:47;10.27;;;4.97;;
55931;SDS011;41837;55.700;37.984;2023-04-24T10:35:14;12.30;;;4.53;;
55931;SDS011;41837;55.700;37.984;2023-04-24T10:37:44;11.27;;;4.97;;
55931;SDS011;41837;55.700;37.984;2023-04-24T10:40:30;12.98;;;4.95;;
55931;SDS011;41837;55.700;37.984;2023-04-24T10:43:07;12.63;;;4.55;;
55931;SDS011;41837;55.700;37.984;2023-04-24T10:45:37;11.70;;;4.40;;
55931;SDS011;41837;55.700;37.984;2023-04-24T10:48:05;12.32;;;4.60;;
55931;SDS011;41837;55.700;37.984;2023-04-24T10:50:52;9.80;;;4.47;;
55931;SDS011;41837;55.700;37.984;2023-04-24T10:53:23;11.77;;;4.35;;
55931;SDS011;41837;55.700;37.984;2023-04-24T10:58:42;11.02;;;3.80;;
55931;SDS011;41837;55.700;37.984;2023-04-24T11:03:54;10.13;;;4.32;;
55931;SDS011;41837;55.700;37.984;2023-04-24T11:06:36;8.80;;;3.97;;
55931;SDS011;41837;55.700;37.984;2023-04-24T11:09:04;6.70;;;4.05;;
55931;SDS011;41837;55.700;37.984;2023-04-24T11:11:35;7.65;;;3.60;;
55931;SDS011;41837;55.700;37.984;2023-04-24T11:14:04;4.75;;;3.53;;
55931;SDS011;41837;55.700;37.984;2023-04-24T11:19:08;8.35;;;3.75;;
55931;SDS011;41837;55.700;37.984;2023-04-24T11:21:45;6.68;;;3.60;;
55931;SDS011;41837;55.700;37.984;2023-04-24T11:27:17;12.88;;;3.88;;
55931;SDS011;41837;55.700;37.984;2023-04-24T11:32:28;17.63;;;4.10;;
55931;SDS011;41837;55.700;37.984;2023-04-24T11:35:08;8.43;;;3.58;;
55931;SDS011;41837;55.700;37.984;2023-04-24T11:37:45;16.27;;;3.75;;
55931;SDS011;41837;55.700;37.984;2023-04-24T11:40:14;8.10;;;3.40;;
55931;SDS011;41837;55.700;37.984;2023-04-24T11:42:47;6.53;;;3.10;;
55931;SDS011;41837;55.700;37.984;2023-04-24T11:45:16;7.65;;;3.70;;
55931;SDS011;41837;55.700;37.984;2023-04-24T11:47:44;8.60;;;3.35;;
55931;SDS011;41837;55.700;37.984;2023-04-24T11:50:12;8.30;;;3.33;;
55931;SDS011;41837;55.700;37.984;2023-04-24T11:52:41;7.07;;;3.55;;
55931;SDS011;41837;55.700;37.984;2023-04-24T11:57:45;6.85;;;3.50;;
55931;SDS011;41837;55.700;37.984;2023-04-24T12:00:16;6.13;;;3.10;;
55931;SDS011;41837;55.700;37.984;2023-04-24T12:02:44;8.27;;;4.05;;
55931;SDS011;41837;55.700;37.984;2023-04-24T12:05:20;8.60;;;3.38;;
55931;SDS011;41837;55.700;37.984;2023-04-24T12:07:47;7.45;;;3.42;;
55931;SDS011;41837;55.700;37.984;2023-04-24T12:10:13;12.00;;;4.10;;
55931;SDS011;41837;55.700;37.984;2023-04-24T12:12:40;12.20;;;3.63;;
55931;SDS011;41837;55.700;37.984;2023-04-24T12:15:07;8.43;;;3.30;;
55931;SDS011;41837;55.700;37.984;2023-04-24T12:17:35;9.68;;;4.22;;
55931;SDS011;41837;55.700;37.984;2023-04-24T12:20:06;8.40;;;3.38;;
55931;SDS011;41837;55.700;37.984;2023-04-24T12:22:44;10.07;;;2.92;;
55931;SDS011;41837;55.700;37.984;2023-04-24T12:25:17;8.32;;;4.25;;
55931;SDS011;41837;55.700;37.984;2023-04-24T12:27:46;5.88;;;2.90;;
55931;SDS011;41837;55.700;37.984;2023-04-24T12:30:17;6.05;;;3.47;;
55931;SDS011;41837;55.700;37.984;2023-04-24T12:32:47;12.90;;;3.40;;
55931;SDS011;41837;55.700;37.984;2023-04-24T12:35:22;6.72;;;2.92;;
55931;SDS011;41837;55.700;37.984;2023-04-24T12:37:49;36.05;;;5.90;;
55931;SDS011;41837;55.700;37.984;2023-04-24T12:40:16;10.82;;;4.28;;
55931;SDS011;41837;55.700;37.984;2023-04-24T12:42:45;16.58;;;8.50;;
55931;SDS011;41837;55.700;37.984;2023-04-24T12:45:13;14.07;;;7.75;;
55931;SDS011;41837;55.700;37.984;2023-04-24T12:47:41;11.45;;;4.35;;
55931;SDS011;41837;55.700;37.984;2023-04-24T12:50:12;10.27;;;3.80;;
55931;SDS011;41837;55.700;37.984;2023-04-24T12:52:40;11.77;;;3.95;;
55931;SDS011;41837;55.700;37.984;2023-04-24T12:55:08;11.95;;;4.45;;
55931;SDS011;41837;55.700;37.984;2023-04-24T12:57:36;9.18;;;4.15;;
55931;SDS011;41837;55.700;37.984;2023-04-24T13:00:03;6.40;;;3.63;;
55931;SDS011;41837;55.700;37.984;2023-04-24T13:02:33;6.88;;;3.08;;
55931;SDS011;41837;55.700;37.984;2023-04-24T13:05:01;7.95;;;2.88;;
55931;SDS011;41837;55.700;37.984;2023-04-24T13:07:32;13.43;;;3.40;;
55931;SDS011;41837;55.700;37.984;2023-04-24T13:09:59;10.13;;;3.33;;
55931;SDS011;41837;55.700;37.984;2023-04-24T13:12:25;8.70;;;3.38;;
55931;SDS011;41837;55.700;37.984;2023-04-24T13:14:52;10.43;;;3.15;;
55931;SDS011;41837;55.700;37.984;2023-04-24T13:17:19;5.03;;;2.92;;
55931;SDS011;41837;55.700;37.984;2023-04-24T13:19:45;13.85;;;3.20;;
55931;SDS011;41837;55.700;37.984;2023-04-24T13:22:12;20.17;;;7.43;;
55931;SDS011;41837;55.700;37.984;2023-04-24T13:24:39;15.43;;;5.53;;
55931;SDS011;41837;55.700;37.984;2023-04-24T13:27:07;11.40;;;6.05;;
55931;SDS011;41837;55.700;37.984;2023-04-24T13:29:35;14.20;;;5.38;;
55931;SDS011;41837;55.700;37.984;2023-04-24T13:32:02;15.38;;;5.25;;
55931;SDS011;41837;55.700;37.984;2023-04-24T13:34:28;6.82;;;3.55;;
55931;SDS011;41837;55.700;37.984;2023-04-24T13:36:55;9.15;;;3.78;;
55931;SDS011;41837;55.700;37.984;2023-04-24T13:39:22;11.02;;;4.18;;
55931;SDS011;41837;55.700;37.984;2023-04-24T13:41:50;12.45;;;3.33;;
55931;SDS011;41837;55.700;37.984;2023-04-24T13:44:17;10.23;;;3.08;;
55931;SDS011;41837;55.700;37.984;2023-04-24T13:46:45;12.70;;;2.92;;
55931;SDS011;41837;55.700;37.984;2023-04-24T13:49:13;6.68;;;3.03;;
55931;SDS011;41837;55.700;37.984;2023-04-24T13:51:40;11.93;;;4.30;;
55931;SDS011;41837;55.700;37.984;2023-04-24T13:54:07;14.40;;;4.10;;
55931;SDS011;41837;55.700;37.984;2023-04-24T13:56:33;13.68;;;3.80;;
55931;SDS011;41837;55.700;37.984;2023-04-24T13:59:00;9.75;;;3.13;;
55931;SDS011;41837;55.700;37.984;2023-04-24T14:01:26;16.15;;;5.82;;
55931;SDS011;41837;55.700;37.984;2023-04-24T14:03:52;18.30;;;7.20;;
55931;SDS011;41837;55.700;37.984;2023-04-24T14:06:20;30.73;;;10.45;;
55931;SDS011;41837;55.700;37.984;2023-04-24T14:08:46;30.45;;;9.57;;
55931;SDS011;41837;55.700;37.984;2023-04-24T14:11:13;18.33;;;9.45;;
55931;SDS011;41837;55.700;37.984;2023-04-24T14:13:40;23.42;;;10.65;;
55931;SDS011;41837;55.700;37.984;2023-04-24T14:16:08;24.80;;;9.05;;
55931;SDS011;41837;55.700;37.984;2023-04-24T14:18:34;15.52;;;6.97;;
55931;SDS011;41837;55.700;37.984;2023-04-24T14:21:01;29.90;;;11.05;;
55931;SDS011;41837;55.700;37.984;2023-04-24T14:23:29;34.88;;;13.45;;
55931;SDS011;41837;55.700;37.984;2023-04-24T14:25:59;21.17;;;7.68;;
55931;SDS011;41837;55.700;37.984;2023-04-24T14:28:26;20.20;;;7.50;;
55931;SDS011;41837;55.700;37.984;2023-04-24T14:30:52;10.90;;;4.88;;
55931;SDS011;41837;55.700;37.984;2023-04-24T14:33:19;13.70;;;5.38;;
55931;SDS011;41837;55.700;37.984;2023-04-24T14:35:48;12.07;;;5.20;;
55931;SDS011;41837;55.700;37.984;2023-04-24T14:38:15;14.95;;;6.30;;
55931;SDS011;41837;55.700;37.984;2023-04-24T14:40:41;17.77;;;5.65;;
55931;SDS011;41837;55.700;37.984;2023-04-24T14:43:08;14.48;;;5.07;;
55931;SDS011;41837;55.700;37.984;2023-04-24T14:45:34;27.58;;;7.93;;